Time;durP1;ratioP1;P1;durP2;ratioP2;P2;SDS_P1;SDS_P2;PMS_P1;PMS_P2;Temp;Humidity;BMP_temperature;BMP_pressure;BME280_temperature;BME280_humidity;BME280_pressure;Samples;Min_cycle;Max_cycle;Signal;HPM_P1;HPM_P2
2024/01/26 00:01:53;;;;;;;9.23;5.10;;;;;;;7.62;100.00;99209.19;5056033;28;20646;-79
2024/01/26 00:04:22;;;;;;;8.60;5.63;;;;;;;7.65;100.00;99206.44;5055420;28;20209;-78
2024/01/26 00:06:53;;;;;;;8.17;5.37;;;;;;;7.68;100.00;99208.94;5054701;28;20210;-79
2024/01/26 00:09:20;;;;;;;7.23;5.13;;;;;;;7.75;100.00;99213.91;5056000;28;20240;-78
2024/01/26 00:11:46;;;;;;;7.47;5.10;;;;;;;7.85;100.00;99204.69;5055018;28;20223;-78
2024/01/26 00:14:13;;;;;;;6.67;4.60;;;;;;;7.90;100.00;99202.72;5054673;28;20232;-78
2024/01/26 00:16:40;;;;;;;8.70;4.90;;;;;;;7.94;100.00;99200.81;5055051;28;20307;-78
2024/01/26 00:19:07;;;;;;;6.30;4.03;;;;;;;8.01;100.00;99199.63;5054946;28;20668;-79
2024/01/26 00:21:34;;;;;;;3.93;3.53;;;;;;;8.08;100.00;99198.47;5054705;28;20782;-78
2024/01/26 00:24:01;;;;;;;5.07;3.10;;;;;;;8.12;100.00;99207.94;5054571;28;20559;-78
2024/01/26 00:26:28;;;;;;;4.63;3.47;;;;;;;8.15;100.00;99202.56;5054144;28;20214;-79
2024/01/26 00:28:57;;;;;;;4.37;2.90;;;;;;;8.19;100.00;99202.38;5055471;28;20218;-79
2024/01/26 00:31:24;;;;;;;3.50;2.97;;;;;;;8.24;100.00;99195.16;5055091;28;20238;-78
2024/01/26 00:33:50;;;;;;;3.30;2.83;;;;;;;8.29;100.00;99205.47;5057866;28;20210;-78
2024/01/26 00:36:17;;;;;;;3.97;3.17;;;;;;;8.31;100.00;99198.34;5058265;28;20209;-78
2024/01/26 00:38:43;;;;;;;3.70;2.97;;;;;;;8.34;100.00;99203.50;5059251;28;20204;-78
2024/01/26 00:41:11;;;;;;;4.77;3.17;;;;;;;8.34;100.00;99203.50;5058946;28;20306;-78
2024/01/26 00:43:38;;;;;;;3.10;2.60;;;;;;;8.37;100.00;99206.00;5058766;28;20215;-78
2024/01/26 00:46:04;;;;;;;3.77;2.90;;;;;;;8.39;100.00;99201.53;5058377;28;20219;-78
2024/01/26 00:48:31;;;;;;;3.07;2.37;;;;;;;8.40;100.00;99209.34;5058657;28;20224;-78
2024/01/26 00:50:57;;;;;;;2.73;2.23;;;;;;;8.48;100.00;99206.38;5058500;28;20399;-78
2024/01/26 00:53:24;;;;;;;3.33;2.07;;;;;;;8.55;100.00;99206.06;5057283;28;20215;-79
2024/01/26 00:55:50;;;;;;;2.17;1.93;;;;;;;8.56;100.00;99217.47;5057193;28;20230;-79
2024/01/26 00:58:18;;;;;;;3.43;1.90;;;;;;;8.54;100.00;99206.13;5058281;28;20215;-78
2024/01/26 01:00:46;;;;;;;3.60;2.20;;;;;;;8.56;100.00;99214.84;5058100;28;20211;-79
2024/01/26 01:03:12;;;;;;;3.03;2.17;;;;;;;8.58;100.00;99212.97;5058483;28;20316;-79
2024/01/26 01:05:42;;;;;;;2.07;1.77;;;;;;;8.60;100.00;99211.13;5057062;28;20687;-78
2024/01/26 01:08:08;;;;;;;2.27;1.60;;;;;;;8.61;100.00;99213.69;5057833;28;20218;-78
2024/01/26 01:10:36;;;;;;;2.20;1.77;;;;;;;8.63;100.00;99211.00;5058735;28;20680;-79
2024/01/26 01:13:04;;;;;;;1.60;1.50;;;;;;;8.62;100.00;99214.56;5058047;28;20637;-78
2024/01/26 01:15:32;;;;;;;1.80;1.60;;;;;;;8.70;100.00;99215.91;5058877;28;20420;-79
2024/01/26 01:17:58;;;;;;;1.63;1.20;;;;;;;8.69;100.00;99214.19;5058295;28;20221;-78
2024/01/26 01:20:25;;;;;;;2.30;1.53;;;;;;;8.72;100.00;99221.13;5058806;28;20215;-79
2024/01/26 01:22:51;;;;;;;1.60;1.40;;;;;;;8.75;100.00;99226.28;5058152;28;20224;-78
2024/01/26 01:25:18;;;;;;;2.30;1.27;;;;;;;8.74;100.00;99219.25;5057810;28;20219;-78
2024/01/26 01:27:44;;;;;;;1.30;1.20;;;;;;;8.76;100.00;99228.81;5058209;28;20212;-78
2024/01/26 01:30:11;;;;;;;1.33;1.13;;;;;;;8.76;100.00;99220.06;5058436;28;20234;-79
2024/01/26 01:32:39;;;;;;;2.03;1.20;;;;;;;8.78;100.00;99226.13;5058367;28;20243;-79
2024/01/26 01:35:06;;;;;;;1.20;1.00;;;;;;;8.79;100.00;99223.44;5060729;28;20235;-79
2024/01/26 01:37:32;;;;;;;1.23;1.00;;;;;;;8.84;100.00;99217.94;5060027;28;20210;-79
2024/01/26 01:39:59;;;;;;;0.83;0.70;;;;;;;8.84;100.00;99204.75;5060471;28;20301;-79
2024/01/26 01:42:25;;;;;;;1.00;0.90;;;;;;;8.84;100.00;99207.41;5059845;28;20560;-78
2024/01/26 01:44:52;;;;;;;0.90;0.90;;;;;;;8.82;100.00;99212.72;5059666;28;20218;-78
2024/01/26 01:47:18;;;;;;;0.90;0.90;;;;;;;8.82;100.00;99214.53;5059794;28;20209;-80
2024/01/26 01:49:47;;;;;;;0.97;0.90;;;;;;;8.77;100.00;99220.00;5058846;28;20226;-80
2024/01/26 01:52:15;;;;;;;1.23;1.07;;;;;;;8.73;100.00;99207.88;5057465;28;20735;-80
2024/01/26 01:54:42;;;;;;;1.63;1.00;;;;;;;8.73;100.00;99201.75;5058081;28;20248;-79
2024/01/26 01:57:11;;;;;;;1.77;1.10;;;;;;;8.72;100.00;99205.31;5054469;28;20559;-80
2024/01/26 01:59:38;;;;;;;1.80;1.07;;;;;;;8.71;100.00;99208.88;5054421;28;20582;-79
2024/01/26 02:02:05;;;;;;;2.53;1.20;;;;;;;8.65;100.00;99212.66;5055237;28;20243;-79
2024/01/26 02:04:32;;;;;;;1.30;1.20;;;;;;;8.62;100.00;99210.13;5055281;28;20212;-79
2024/01/26 02:07:01;;;;;;;1.50;1.20;;;;;;;8.58;100.00;99205.91;5056053;28;20215;-78
2024/01/26 02:09:28;;;;;;;1.67;1.20;;;;;;;8.55;100.00;99202.56;5059257;28;20210;-78
2024/01/26 02:11:59;;;;;;;2.40;1.40;;;;;;;8.49;100.00;99202.84;5059702;28;20627;-79
2024/01/26 02:14:26;;;;;;;2.77;2.57;;;;;;;8.46;100.00;99203.81;5059408;28;20206;-79
2024/01/26 02:16:54;;;;;;;1.80;1.50;;;;;;;8.44;100.00;99212.75;5059828;28;20232;-79
2024/01/26 02:19:21;;;;;;;1.77;1.37;;;;;;;8.45;100.00;99206.53;5059517;28;20709;-80
2024/01/26 02:21:48;;;;;;;1.40;1.20;;;;;;;8.43;100.00;99213.63;5057776;28;20228;-79
2024/01/26 02:24:15;;;;;;;1.47;1.30;;;;;;;8.44;100.00;99215.38;5060113;28;20303;-79
2024/01/26 02:26:42;;;;;;;1.30;1.20;;;;;;;8.43;100.00;99213.63;5058716;28;20212;-79
2024/01/26 02:29:08;;;;;;;1.20;1.10;;;;;;;8.42;100.00;99211.94;5058913;28;20215;-79
2024/01/26 02:31:35;;;;;;;1.57;1.00;;;;;;;8.42;100.00;99212.78;5059475;28;20725;-78
2024/01/26 02:34:02;;;;;;;1.50;1.10;;;;;;;8.41;100.00;99208.47;5058980;28;20236;-79
2024/01/26 02:36:29;;;;;;;1.30;1.13;;;;;;;8.46;100.00;99202.97;5058242;28;20318;-78
2024/01/26 02:38:56;;;;;;;2.07;1.20;;;;;;;8.44;100.00;99205.66;5058136;28;20206;-78
2024/01/26 02:41:24;;;;;;;1.10;1.00;;;;;;;8.43;100.00;99203.97;5058375;28;20729;-78
2024/01/26 02:43:50;;;;;;;2.07;1.30;;;;;;;8.44;100.00;99199.56;5058538;28;20208;-78
2024/01/26 02:46:17;;;;;;;1.73;0.97;;;;;;;8.43;100.00;99208.38;5057618;28;20215;-79
2024/01/26 02:48:46;;;;;;;1.43;0.90;;;;;;;8.45;100.00;99204.75;5058201;28;20249;-79
2024/01/26 02:51:13;;;;;;;0.80;0.80;;;;;;;8.45;100.00;99206.53;5058543;28;20291;-81
2024/01/26 02:53:42;;;;;;;1.83;0.90;;;;;;;8.47;100.00;99202.06;5057093;28;20214;-78
2024/01/26 02:56:09;;;;;;;0.90;0.80;;;;;;;8.50;100.00;99194.03;5056814;28;20234;-78
2024/01/26 02:58:37;;;;;;;1.80;0.93;;;;;;;8.52;100.00;99198.28;5058329;28;20655;-80
2024/01/26 03:01:03;;;;;;;0.87;0.77;;;;;;;8.55;100.00;99192.03;5059162;28;20222;-78
2024/01/26 03:03:30;;;;;;;0.57;0.50;;;;;;;8.54;100.00;99195.59;5058184;28;20214;-78
2024/01/26 03:05:57;;;;;;;1.27;0.90;;;;;;;8.52;100.00;99193.00;5057887;28;20213;-79
2024/01/26 03:08:23;;;;;;;1.67;0.80;;;;;;;8.52;100.00;99203.56;5058688;28;20207;-79
2024/01/26 03:10:51;;;;;;;1.07;1.00;;;;;;;8.52;100.00;99206.19;5058236;28;20210;-79
2024/01/26 03:13:18;;;;;;;0.70;0.70;;;;;;;8.53;100.00;99207.91;5058786;28;20214;-79
2024/01/26 03:15:49;;;;;;;0.90;0.73;;;;;;;8.51;100.00;99201.00;5059852;28;20300;-79
2024/01/26 03:18:16;;;;;;;0.77;0.77;;;;;;;8.51;100.00;99203.63;5058609;28;20263;-79
2024/01/26 03:20:43;;;;;;;1.37;0.90;;;;;;;8.51;100.00;99201.00;5059165;28;20633;-79
2024/01/26 03:23:10;;;;;;;1.07;0.80;;;;;;;8.49;100.00;99197.56;5059537;28;20238;-79
2024/01/26 03:25:37;;;;;;;1.50;0.90;;;;;;;8.52;100.00;99197.44;5058078;28;20696;-79
2024/01/26 03:28:04;;;;;;;1.47;0.80;;;;;;;8.52;100.00;99197.44;5057653;28;20214;-79
2024/01/26 03:30:31;;;;;;;0.70;0.70;;;;;;;8.58;100.00;99200.63;5058238;28;20406;-78
2024/01/26 03:32:59;;;;;;;3.13;0.80;;;;;;;8.53;100.00;99193.88;5058174;28;20310;-79
2024/01/26 03:35:26;;;;;;;1.73;0.70;;;;;;;8.53;100.00;99197.38;5058497;28;20628;-79
2024/01/26 03:37:52;;;;;;;0.60;0.60;;;;;;;8.52;100.00;99192.16;5058953;28;20294;-79
2024/01/26 03:40:21;;;;;;;2.53;0.77;;;;;;;8.52;100.00;99194.81;5057843;28;20205;-78
2024/01/26 03:42:47;;;;;;;1.57;0.70;;;;;;;8.55;100.00;99197.28;5057832;28;20280;-78
2024/01/26 03:45:14;;;;;;;0.60;0.60;;;;;;;8.49;100.00;99192.28;5056586;28;20566;-79
2024/01/26 03:47:41;;;;;;;0.83;0.80;;;;;;;8.49;100.00;99198.44;5057199;28;20208;-79
2024/01/26 03:50:10;;;;;;;0.53;0.53;;;;;;;8.42;100.00;99201.38;5058150;28;20214;-78
2024/01/26 03:52:37;;;;;;;0.67;0.60;;;;;;;8.37;100.00;99203.38;5057189;28;20229;-78
2024/01/26 03:55:06;;;;;;;0.80;0.70;;;;;;;8.33;100.00;99202.66;5057283;28;20225;-78
2024/01/26 03:57:33;;;;;;;0.60;0.60;;;;;;;8.34;100.00;99206.16;5057663;28;20212;-78
2024/01/26 04:00:00;;;;;;;1.87;1.00;;;;;;;8.34;100.00;99208.78;5057657;28;20301;-79
2024/01/26 04:02:26;;;;;;;0.77;0.67;;;;;;;8.32;100.00;99211.47;5057159;28;20617;-78
2024/01/26 04:04:53;;;;;;;0.60;0.60;;;;;;;8.32;100.00;99210.63;5057044;28;20204;-78
2024/01/26 04:07:20;;;;;;;0.67;0.60;;;;;;;8.37;100.00;99213.91;5056617;28;20206;-79
2024/01/26 04:09:47;;;;;;;0.77;0.60;;;;;;;8.38;100.00;99219.09;5057312;28;20219;-79
2024/01/26 04:12:13;;;;;;;0.80;0.80;;;;;;;8.43;100.00;99224.19;5057589;28;20671;-79
2024/01/26 04:14:40;;;;;;;2.13;0.70;;;;;;;8.46;100.00;99216.16;5057208;28;20210;-79
2024/01/26 04:17:06;;;;;;;0.67;0.67;;;;;;;8.48;100.00;99206.38;5056683;28;20242;-78
2024/01/26 04:19:33;;;;;;;0.83;0.83;;;;;;;8.54;100.00;99200.84;5056264;28;20210;-79
2024/01/26 04:21:59;;;;;;;1.67;1.00;;;;;;;8.54;100.00;99207.00;5056390;28;20648;-78
2024/01/26 04:24:27;;;;;;;0.73;0.73;;;;;;;8.57;100.00;99206.84;5056080;28;20213;-79
2024/01/26 04:26:53;;;;;;;1.47;1.07;;;;;;;8.54;100.00;99208.75;5055309;28;20213;-78
2024/01/26 04:29:20;;;;;;;1.00;0.90;;;;;;;8.52;100.00;99198.28;5056088;28;20210;-79
2024/01/26 04:31:46;;;;;;;1.10;1.00;;;;;;;8.51;100.00;99198.38;5056374;28;20230;-79
2024/01/26 04:34:13;;;;;;;2.83;1.13;;;;;;;8.48;100.00;99195.84;5057032;28;20217;-78
2024/01/26 04:36:46;;;;;;;2.30;0.90;;;;;;;8.47;100.00;99186.25;5054819;28;20230;-78
2024/01/26 04:39:13;;;;;;;1.10;1.00;;;;;;;8.47;100.00;99175.72;5056100;28;20194;-78
2024/01/26 04:41:41;;;;;;;3.03;1.00;;;;;;;8.46;100.00;99174.84;5055771;28;20237;-79
2024/01/26 04:44:08;;;;;;;1.50;1.10;;;;;;;8.42;100.00;99175.91;5056064;28;20213;-78
2024/01/26 04:46:35;;;;;;;1.47;1.37;;;;;;;8.43;100.00;99174.13;5055330;28;20243;-78
2024/01/26 04:49:01;;;;;;;1.47;1.03;;;;;;;8.40;100.00;99176.91;5055826;28;20231;-78
2024/01/26 04:51:28;;;;;;;1.20;0.87;;;;;;;8.38;100.00;99176.13;5056549;28;20271;-79
2024/01/26 04:53:55;;;;;;;1.67;0.90;;;;;;;8.38;100.00;99179.59;5056470;28;20227;-78
2024/01/26 04:56:21;;;;;;;1.20;1.00;;;;;;;8.37;100.00;99182.28;5056310;28;20231;-78
2024/01/26 04:58:49;;;;;;;2.43;0.90;;;;;;;8.37;100.00;99182.28;5056626;28;20237;-79
2024/01/26 05:01:16;;;;;;;1.17;1.07;;;;;;;8.38;100.00;99174.31;5056658;28;20554;-79
2024/01/26 05:03:42;;;;;;;1.10;0.97;;;;;;;8.39;100.00;99188.38;5056551;28;20224;-79
2024/01/26 05:06:09;;;;;;;1.70;0.90;;;;;;;8.41;100.00;99189.16;5056688;28;20204;-78
2024/01/26 05:08:35;;;;;;;1.10;1.00;;;;;;;8.40;100.00;99192.72;5055731;28;20208;-78
2024/01/26 05:11:02;;;;;;;1.63;0.83;;;;;;;8.42;100.00;99177.69;5056774;28;20237;-79
2024/01/26 05:13:28;;;;;;;1.10;1.00;;;;;;;8.45;100.00;99190.75;5057617;28;20215;-79
2024/01/26 05:15:56;;;;;;;2.27;1.17;;;;;;;8.47;100.00;99188.88;5056724;28;20234;-79
2024/01/26 05:18:23;;;;;;;0.97;0.90;;;;;;;8.48;100.00;99188.81;5055810;28;20220;-78
2024/01/26 05:20:52;;;;;;;1.53;1.20;;;;;;;8.43;100.00;99192.56;5058677;28;20214;-79
2024/01/26 05:23:18;;;;;;;1.77;1.10;;;;;;;8.41;100.00;99189.16;5059367;28;20217;-79
2024/01/26 05:25:45;;;;;;;1.50;1.10;;;;;;;8.36;100.00;99194.63;5056509;28;20213;-80
2024/01/26 05:28:11;;;;;;;1.50;1.20;;;;;;;8.29;100.00;99195.81;5056292;28;20212;-80
2024/01/26 05:30:38;;;;;;;1.20;1.10;;;;;;;8.24;100.00;99197.78;5055836;28;20216;-80
2024/01/26 05:33:06;;;;;;;1.60;1.30;;;;;;;8.24;100.00;99194.28;5055441;28;20737;-80
2024/01/26 05:35:32;;;;;;;1.70;1.43;;;;;;;8.22;100.00;99189.09;5057570;28;20210;-78
2024/01/26 05:37:59;;;;;;;1.50;1.07;;;;;;;8.22;100.00;99182.97;5054196;28;20205;-80
2024/01/26 05:40:28;;;;;;;1.67;1.23;;;;;;;8.19;100.00;99181.31;5057427;28;20316;-80
2024/01/26 05:42:54;;;;;;;1.27;1.03;;;;;;;8.24;100.00;99179.34;5057897;28;20231;-78
2024/01/26 05:45:21;;;;;;;1.30;1.10;;;;;;;8.24;100.00;99170.59;5058116;28;20209;-79
2024/01/26 05:47:48;;;;;;;1.57;1.20;;;;;;;8.18;100.00;99160.28;5057283;28;20221;-78
2024/01/26 05:50:17;;;;;;;1.30;1.10;;;;;;;8.16;100.00;99177.94;5058564;28;20209;-78
2024/01/26 05:52:44;;;;;;;1.07;0.97;;;;;;;8.19;100.00;99177.78;5058490;28;20241;-79
2024/01/26 05:55:11;;;;;;;1.50;1.03;;;;;;;8.21;100.00;99176.00;5058979;28;20308;-78
2024/01/26 05:57:43;;;;;;;2.03;1.30;;;;;;;8.19;100.00;99173.44;5057545;28;20241;-78
2024/01/26 06:00:10;;;;;;;1.77;1.33;;;;;;;8.19;100.00;99172.53;5055925;28;20276;-80
2024/01/26 06:02:37;;;;;;;1.30;1.20;;;;;;;8.15;100.00;99166.53;5055019;28;20242;-79
2024/01/26 06:05:04;;;;;;;1.53;1.00;;;;;;;8.13;100.00;99164.88;5054339;28;20217;-80
2024/01/26 06:07:32;;;;;;;1.00;1.00;;;;;;;8.11;100.00;99166.75;5054725;28;20202;-79
2024/01/26 06:09:58;;;;;;;1.83;1.30;;;;;;;8.11;100.00;99161.47;5054561;28;20214;-79
2024/01/26 06:12:25;;;;;;;1.70;1.00;;;;;;;8.11;100.00;99169.38;5055066;28;20245;-80
2024/01/26 06:14:51;;;;;;;3.27;1.10;;;;;;;8.10;100.00;99172.94;5054574;28;20269;-78
2024/01/26 06:17:18;;;;;;;1.40;1.10;;;;;;;8.10;100.00;99178.19;5056133;28;20717;-77
2024/01/26 06:19:44;;;;;;;1.47;1.00;;;;;;;8.06;100.00;99181.88;5054431;28;20226;-79
2024/01/26 06:22:11;;;;;;;1.10;1.00;;;;;;;8.06;100.00;99184.50;5056788;28;20370;-79
2024/01/26 06:24:39;;;;;;;1.33;1.00;;;;;;;8.06;100.00;99189.78;5055892;28;20217;-78
2024/01/26 06:27:05;;;;;;;1.20;1.10;;;;;;;8.08;100.00;99185.31;5056516;28;20218;-78
2024/01/26 06:29:32;;;;;;;1.40;1.10;;;;;;;8.15;100.00;99168.34;5055469;28;20223;-79
2024/01/26 06:31:59;;;;;;;1.30;1.20;;;;;;;8.14;100.00;99164.00;5056414;28;20242;-78
2024/01/26 06:34:25;;;;;;;1.17;1.00;;;;;;;8.18;100.00;99176.09;5057990;28;20746;-78
2024/01/26 06:36:52;;;;;;;1.30;1.20;;;;;;;8.21;100.00;99176.00;5056403;28;20744;-78
2024/01/26 06:39:19;;;;;;;1.03;0.97;;;;;;;8.27;100.00;99175.72;5056675;28;20722;-78
2024/01/26 06:41:46;;;;;;;1.10;1.00;;;;;;;8.31;100.00;99177.28;5056982;28;20246;-78
2024/01/26 06:44:14;;;;;;;2.17;1.00;;;;;;;8.41;100.00;99179.47;5056887;28;20558;-78
2024/01/26 06:46:40;;;;;;;1.53;0.90;;;;;;;8.40;100.00;99179.53;5056724;28;20354;-79
2024/01/26 06:49:10;;;;;;;1.70;1.00;;;;;;;8.43;100.00;99166.22;5056996;28;20209;-79
2024/01/26 06:51:37;;;;;;;1.40;1.00;;;;;;;8.46;100.00;99176.63;5057553;28;20259;-78
2024/01/26 06:54:04;;;;;;;1.37;1.03;;;;;;;8.50;100.00;99165.03;5056829;28;20248;-79
2024/01/26 06:56:30;;;;;;;0.97;0.80;;;;;;;8.51;100.00;99169.38;5057290;28;20725;-79
2024/01/26 06:58:58;;;;;;;0.80;0.80;;;;;;;8.53;100.00;99175.44;5058353;28;20225;-78
2024/01/26 07:01:24;;;;;;;1.10;1.00;;;;;;;8.57;100.00;99171.75;5057456;28;20662;-79
2024/01/26 07:03:51;;;;;;;0.90;0.90;;;;;;;8.59;100.00;99172.53;5057728;28;20218;-78
2024/01/26 07:06:17;;;;;;;1.03;0.97;;;;;;;8.59;100.00;99175.16;5057899;28;20204;-78
2024/01/26 07:08:44;;;;;;;2.43;0.90;;;;;;;8.62;100.00;99172.41;5059263;28;20212;-79
2024/01/26 07:11:11;;;;;;;1.00;0.87;;;;;;;8.64;100.00;99165.28;5060223;28;20211;-78
2024/01/26 07:13:37;;;;;;;0.80;0.80;;;;;;;8.69;100.00;99158.03;5061049;28;20226;-79
2024/01/26 07:16:06;;;;;;;1.10;0.80;;;;;;;8.71;100.00;99161.44;5060372;28;20239;-79
2024/01/26 07:18:32;;;;;;;0.83;0.80;;;;;;;8.78;100.00;99152.31;5060175;28;20206;-79
2024/01/26 07:20:59;;;;;;;1.30;1.10;;;;;;;8.83;100.00;99160.88;5061594;28;20206;-80
2024/01/26 07:23:25;;;;;;;0.80;0.80;;;;;;;8.94;100.00;99153.31;5064247;28;20213;-80
2024/01/26 07:25:52;;;;;;;1.40;0.80;;;;;;;8.98;100.00;99157.50;5060414;28;20596;-78
2024/01/26 07:28:18;;;;;;;0.97;0.93;;;;;;;9.01;100.00;99152.13;5060122;28;20206;-78
2024/01/26 07:30:45;;;;;;;0.70;0.63;;;;;;;9.02;100.00;99140.63;5063576;28;20623;-79
2024/01/26 07:33:13;;;;;;;1.53;0.90;;;;;;;9.09;100.00;99139.41;5060737;28;20231;-79
2024/01/26 07:35:39;;;;;;;2.53;0.90;;;;;;;9.08;100.00;99135.06;5060972;28;20237;-80
2024/01/26 07:38:06;;;;;;;1.30;0.83;;;;;;;9.12;100.00;99131.38;5076198;28;20321;-79
2024/01/26 07:40:33;;;;;;;1.50;0.83;;;;;;;9.15;100.00;99123.28;5081760;28;20541;-80
2024/01/26 07:42:59;;;;;;;1.60;1.00;;;;;;;9.22;100.00;99127.34;5080825;28;20237;-79
2024/01/26 07:45:26;;;;;;;1.77;0.80;;;;;;;9.24;100.00;99130.78;5079934;28;20208;-79
2024/01/26 07:47:52;;;;;;;3.40;0.80;;;;;;;9.29;100.00;99144.59;5080310;28;20582;-79
2024/01/26 07:50:20;;;;;;;1.20;0.90;;;;;;;9.37;100.00;99147.72;5080488;28;20240;-78
2024/01/26 07:52:47;;;;;;;2.03;0.80;;;;;;;9.40;100.00;99153.72;5081521;28;20838;-79
2024/01/26 07:55:14;;;;;;;1.53;0.87;;;;;;;9.42;100.00;99141.28;5079027;28;20215;-78
2024/01/26 07:57:40;;;;;;;2.27;1.00;;;;;;;9.42;100.00;99140.44;5077713;28;20714;-78
2024/01/26 08:00:08;;;;;;;3.03;0.90;;;;;;;9.48;100.00;99135.72;5077866;28;20237;-79
2024/01/26 08:02:35;;;;;;;1.67;0.90;;;;;;;9.59;100.00;99143.09;5076515;28;20244;-78
2024/01/26 08:05:01;;;;;;;1.00;0.77;;;;;;;9.65;100.00;99132.22;5074713;28;20319;-78
2024/01/26 08:07:30;;;;;;;0.97;0.70;;;;;;;9.72;100.00;99128.38;5073054;28;20204;-79
2024/01/26 08:09:56;;;;;;;1.00;0.80;;;;;;;9.79;100.00;99135.06;5073224;28;20290;-80
2024/01/26 08:12:23;;;;;;;0.87;0.87;;;;;;;9.80;100.00;99120.94;5073206;28;20244;-79
2024/01/26 08:14:50;;;;;;;0.80;0.77;;;;;;;9.81;100.00;99125.28;5074614;28;20688;-79
2024/01/26 08:17:16;;;;;;;0.97;0.80;;;;;;;9.84;100.00;99120.69;5075699;28;20231;-79
2024/01/26 08:19:42;;;;;;;0.50;0.50;;;;;;;9.81;100.00;99117.34;5076413;28;20215;-79
2024/01/26 08:22:09;;;;;;;1.20;0.80;;;;;;;9.82;100.00;99121.69;5077128;28;20241;-79
2024/01/26 08:24:37;;;;;;;0.90;0.80;;;;;;;9.84;100.00;99133.06;5076877;28;20220;-79
2024/01/26 08:27:05;;;;;;;2.00;1.00;;;;;;;9.83;100.00;99136.59;5076058;28;20203;-79
2024/01/26 08:29:31;;;;;;;0.67;0.67;;;;;;;9.82;100.00;99137.53;5076679;28;20244;-79
2024/01/26 08:31:58;;;;;;;1.17;0.73;;;;;;;9.81;100.00;99127.91;5077025;28;20777;-79
2024/01/26 08:34:24;;;;;;;1.13;0.67;;;;;;;9.89;100.00;99128.38;5076439;28;20516;-79
2024/01/26 08:36:51;;;;;;;1.20;0.70;;;;;;;9.89;100.00;99121.31;5076866;28;20238;-79
2024/01/26 08:39:17;;;;;;;1.20;0.90;;;;;;;9.90;100.00;99114.25;5076216;28;20205;-79
2024/01/26 08:41:46;;;;;;;1.30;0.87;;;;;;;9.95;100.00;99105.16;5077348;28;20233;-79
2024/01/26 08:44:13;;;;;;;1.93;0.70;;;;;;;10.01;100.00;99098.69;5077113;28;20216;-79
2024/01/26 08:46:40;;;;;;;0.80;0.80;;;;;;;10.06;100.00;99091.41;5076729;28;20208;-79
2024/01/26 08:49:07;;;;;;;0.93;0.70;;;;;;;10.06;100.00;99079.09;5076747;28;20209;-79
2024/01/26 08:51:33;;;;;;;1.07;0.80;;;;;;;10.09;100.00;99075.44;5076378;28;20656;-79
2024/01/26 08:54:00;;;;;;;0.70;0.70;;;;;;;10.16;100.00;99069.72;5077285;28;20210;-79
2024/01/26 08:56:26;;;;;;;0.77;0.77;;;;;;;10.23;100.00;99070.25;5079124;28;20211;-78
2024/01/26 08:58:54;;;;;;;0.77;0.67;;;;;;;10.18;100.00;99059.09;5077250;28;20727;-77
2024/01/26 09:01:21;;;;;;;0.97;0.77;;;;;;;10.17;100.00;99062.66;5076832;28;20228;-79
2024/01/26 09:03:47;;;;;;;0.77;0.77;;;;;;;10.26;100.00;99062.16;5079759;28;20221;-80
2024/01/26 09:06:14;;;;;;;0.80;0.80;;;;;;;10.33;100.00;99064.41;5080078;28;20231;-79
2024/01/26 09:08:41;;;;;;;1.10;0.73;;;;;;;10.39;100.00;99052.66;5077199;28;20322;-80
2024/01/26 09:11:07;;;;;;;1.27;1.03;;;;;;;10.47;100.00;99045.16;5077699;28;20517;-79
2024/01/26 09:13:34;;;;;;;1.47;1.10;;;;;;;10.50;100.00;99035.28;5080252;28;20215;-78
2024/01/26 09:16:01;;;;;;;0.83;0.83;;;;;;;10.53;100.00;99040.38;5080140;28;20294;-80
2024/01/26 09:18:28;;;;;;;1.40;1.10;;;;;;;10.60;100.00;99051.50;5078889;28;20237;-80
2024/01/26 09:20:54;;;;;;;1.37;0.90;;;;;;;10.67;100.00;99058.13;5078708;28;20232;-78
2024/01/26 09:23:21;;;;;;;1.87;0.80;;;;;;;10.71;100.00;99059.69;5079975;28;20211;-79
2024/01/26 09:25:47;;;;;;;4.77;1.50;;;;;;;10.74;100.00;99056.88;5080277;28;20213;-78
2024/01/26 09:28:14;;;;;;;1.03;0.93;;;;;;;10.73;100.00;99052.53;5079795;28;20571;-78
2024/01/26 09:30:40;;;;;;;1.40;0.80;;;;;;;10.72;100.00;99050.81;5079573;28;20215;-78
2024/01/26 09:33:08;;;;;;;2.47;0.90;;;;;;;10.75;100.00;99046.22;5079098;28;20591;-78
2024/01/26 09:35:35;;;;;;;1.53;1.10;;;;;;;10.76;100.00;99052.38;5076911;28;20215;-79
2024/01/26 09:38:01;;;;;;;1.23;0.80;;;;;;;10.77;100.00;99048.78;5077085;28;20234;-79
2024/01/26 09:40:28;;;;;;;1.07;0.80;;;;;;;10.78;100.00;99050.47;5078036;28;20426;-78
2024/01/26 09:42:54;;;;;;;1.67;0.90;;;;;;;10.75;100.00;99045.34;5080638;28;20227;-80
2024/01/26 09:45:22;;;;;;;1.10;0.70;;;;;;;10.78;100.00;99039.91;5080877;28;20217;-80
2024/01/26 09:47:51;;;;;;;1.03;0.77;;;;;;;10.79;100.00;99036.31;5079959;28;20615;-79
2024/01/26 09:50:21;;;;;;;2.67;0.90;;;;;;;10.82;100.00;99036.16;5081882;28;20205;-79
2024/01/26 09:52:48;;;;;;;2.73;0.77;;;;;;;10.83;100.00;99033.41;5079615;28;20228;-78
2024/01/26 09:55:16;;;;;;;1.13;0.70;;;;;;;10.88;100.00;99027.88;5080924;28;20275;-78
2024/01/26 09:57:45;;;;;;;0.93;0.90;;;;;;;11.01;100.00;99031.53;5081033;28;20252;-78
2024/01/26 10:00:12;;;;;;;2.03;1.20;;;;;;;11.02;100.00;99033.22;5081047;28;20217;-78
2024/01/26 10:02:39;;;;;;;1.30;0.90;;;;;;;11.04;100.00;99031.34;5078198;28;20708;-77
2024/01/26 10:05:06;;;;;;;0.80;0.70;;;;;;;11.12;100.00;99042.38;5076111;28;20212;-78
2024/01/26 10:07:34;;;;;;;2.20;0.93;;;;;;;11.12;100.00;99045.00;5076965;28;20203;-78
2024/01/26 10:10:01;;;;;;;2.40;1.00;;;;;;;11.17;100.00;99049.09;5077082;28;20376;-78
2024/01/26 10:12:27;;;;;;;0.93;0.80;;;;;;;11.21;100.00;99044.47;5076041;28;20233;-78
2024/01/26 10:15:03;;;;;;;1.90;0.83;;;;;;;11.23;100.00;99042.56;5076660;28;20210;-78
2024/01/26 10:17:29;;;;;;;1.40;0.93;;;;;;;11.18;100.00;99044.66;5075687;28;20239;-78
2024/01/26 10:20:07;;;;;;;2.30;1.10;;;;;;;11.22;100.00;99038.22;5076222;28;20215;-78
2024/01/26 10:22:35;;;;;;;1.20;1.00;;;;;;;11.28;100.00;99043.19;5076218;28;20283;-78
2024/01/26 10:25:02;;;;;;;1.60;0.87;;;;;;;11.22;100.00;99047.03;5075900;28;20213;-78
2024/01/26 10:27:29;;;;;;;1.00;0.90;;;;;;;11.25;100.00;99035.44;5074414;28;20233;-78
2024/01/26 10:29:55;;;;;;;1.47;0.93;;;;;;;11.29;100.00;99026.34;5076324;28;20241;-78
2024/01/26 10:32:27;;;;;;;1.17;0.90;;;;;;;11.28;100.00;99022.00;5076115;28;20230;-77
2024/01/26 10:34:56;;;;;;;1.37;0.93;;;;;;;11.34;100.00;99011.06;5076472;28;20541;-78
2024/01/26 10:37:27;;;;;;;2.33;0.90;;;;;;;11.38;100.00;99012.59;5076190;28;20230;-78
2024/01/26 10:39:56;;;;;;;1.23;0.93;;;;;;;11.35;100.00;99004.81;5076600;28;20240;-78
2024/01/26 10:42:23;;;;;;;1.80;1.20;;;;;;;11.36;100.00;99002.09;5075913;28;20312;-78
2024/01/26 10:44:50;;;;;;;3.43;1.70;;;;;;;11.41;100.00;99009.75;5075742;28;20207;-78
2024/01/26 10:47:17;;;;;;;2.00;1.50;;;;;;;11.43;100.00;99007.91;5075766;28;20224;-79
2024/01/26 10:49:48;;;;;;;1.13;0.93;;;;;;;11.37;100.00;98997.66;5077040;28;20207;-79
2024/01/26 10:52:17;;;;;;;2.23;1.40;;;;;;;11.38;100.00;99002.00;5076740;28;20224;-79
2024/01/26 10:54:45;;;;;;;1.27;1.13;;;;;;;11.42;100.00;99004.38;5076581;28;20561;-79
2024/01/26 10:57:13;;;;;;;2.47;0.90;;;;;;;11.44;100.00;98999.00;5076549;28;20210;-79
2024/01/26 10:59:41;;;;;;;1.33;1.00;;;;;;;11.39;100.00;98985.19;5076649;28;20221;-79
2024/01/26 11:02:10;;;;;;;1.17;0.87;;;;;;;11.45;100.00;98966.28;5075607;28;20231;-78
2024/01/26 11:04:36;;;;;;;2.87;1.00;;;;;;;11.52;100.00;98954.38;5075884;28;20235;-78
2024/01/26 11:07:04;;;;;;;1.50;0.87;;;;;;;11.62;100.00;98953.78;5074959;28;20287;-77
2024/01/26 11:09:34;;;;;;;1.30;0.80;;;;;;;11.59;100.00;98961.91;5072905;28;20352;-77
2024/01/26 11:12:02;;;;;;;1.20;0.80;;;;;;;11.64;100.00;98969.56;5074750;28;20276;-79
2024/01/26 11:14:32;;;;;;;0.80;0.80;;;;;;;11.69;100.00;98970.16;5074308;28;20214;-79
2024/01/26 11:17:09;;;;;;;1.03;0.80;;;;;;;11.61;100.00;98969.78;5073231;28;20558;-78
2024/01/26 11:19:36;;;;;;;0.80;0.80;;;;;;;11.58;100.00;98967.25;5073194;28;20258;-77
2024/01/26 11:22:05;;;;;;;1.53;0.93;;;;;;;11.51;100.00;98963.28;5074643;28;20230;-79
2024/01/26 11:24:33;;;;;;;1.53;0.90;;;;;;;11.48;100.00;98955.50;5075145;28;20203;-78
2024/01/26 11:27:01;;;;;;;1.03;0.80;;;;;;;11.49;100.00;98954.59;5074121;28;20203;-78
2024/01/26 11:29:36;;;;;;;1.73;0.80;;;;;;;11.50;100.00;98948.34;5074550;28;20304;-78
2024/01/26 11:32:15;;;;;;;0.80;0.80;;;;;;;11.53;100.00;98945.50;5075286;28;20251;-78